createdAt,value
2023-04-21T00:05:52.079Z,7.3
2023-04-21T00:11:43.841Z,7.4
2023-04-21T00:17:35.010Z,7.6
2023-04-21T00:23:26.677Z,7.6
2023-04-21T00:29:18.059Z,7.6
2023-04-21T00:34:54.375Z,7.4
2023-04-21T00:40:46.596Z,7.4
2023-04-21T00:46:22.898Z,7.1
2023-04-21T00:51:59.463Z,6.7
2023-04-21T00:57:35.947Z,6.8
2023-04-21T01:03:13.859Z,6.7
2023-04-21T01:09:06.398Z,6.5
2023-04-21T01:14:42.242Z,6.6
2023-04-21T01:20:34.217Z,6.5
2023-04-21T01:26:25.653Z,6.2
2023-04-21T01:32:17.059Z,6.1
2023-04-21T01:38:09.051Z,6.2
2023-04-21T01:43:29.385Z,5.8
2023-04-21T01:48:50.670Z,6.1
2023-04-21T01:54:42.708Z,6.2
2023-04-21T02:00:03.154Z,5.9
2023-04-21T02:05:56.703Z,5.8
2023-04-21T02:11:48.386Z,6.1
2023-04-21T02:17:57.042Z,5.6
2023-04-21T02:23:48.499Z,5.4
2023-04-21T02:29:24.991Z,5.4
2023-04-21T02:35:22.854Z,5.2
2023-04-21T02:41:14.390Z,5.3
2023-04-21T02:47:06.270Z,5.6
2023-04-21T02:52:58.850Z,6.1
2023-04-21T02:58:50.217Z,6
2023-04-21T03:04:43.525Z,6.2
2023-04-21T03:10:34.753Z,6.3
2023-04-21T03:16:26.583Z,6.1
2023-04-21T03:22:19.298Z,6.6
2023-04-21T03:28:11.148Z,6.8
2023-04-21T03:33:48.591Z,6.9
2023-04-21T03:39:52.350Z,6.9
2023-04-21T03:45:44.160Z,7.2
2023-04-21T03:51:38.115Z,7.4
2023-04-21T03:57:29.632Z,7.5
2023-04-21T04:03:23.289Z,7.5
2023-04-21T04:09:16.028Z,7.6
2023-04-21T04:14:36.882Z,7.9
2023-04-21T04:20:29.225Z,8.1
2023-04-21T04:26:20.327Z,8.3
2023-04-21T04:31:56.980Z,8.4
2023-04-21T04:37:51.269Z,8.7
2023-04-21T04:43:42.256Z,8.9
2023-04-21T04:49:39.802Z,9.1
2023-04-21T04:55:30.118Z,9.2
2023-04-21T05:01:20.889Z,9.4
2023-04-21T05:07:00.136Z,9.8
2023-04-21T05:12:50.864Z,10
2023-04-21T05:18:43.532Z,10.3
2023-04-21T05:24:37.804Z,10.3
2023-04-21T05:30:32.337Z,10.8
2023-04-21T05:36:27.175Z,11.1
2023-04-21T05:42:19.598Z,11.4
2023-04-21T05:47:56.389Z,11.5
2023-04-21T05:53:02.837Z,11.9
2023-04-21T05:58:54.683Z,11.8
2023-04-21T06:04:33.332Z,11.9
2023-04-21T06:10:10.747Z,12.3
2023-04-21T06:16:02.548Z,12.8
2023-04-21T06:21:54.220Z,12.9
2023-04-21T06:27:30.376Z,13.6
2023-04-21T06:32:54.819Z,14.1
2023-04-21T06:38:46.625Z,13.6
2023-04-21T06:44:38.636Z,14.1
2023-04-21T06:50:15.072Z,13.9
2023-04-21T06:55:50.571Z,13.7
2023-04-21T07:01:45.333Z,13.9
2023-04-21T07:07:39.027Z,14.2
2023-04-21T07:13:30.581Z,14.8
2023-04-21T07:19:22.203Z,14.7
2023-04-21T07:25:14.639Z,15.4
2023-04-21T07:30:49.855Z,15.3
2023-04-21T07:36:41.041Z,14.7
2023-04-21T07:42:33.650Z,15.8
2023-04-21T07:48:24.646Z,15.4
2023-04-21T07:54:15.694Z,15.9
2023-04-21T08:00:07.704Z,15.8
2023-04-21T08:05:50.901Z,15.3
2023-04-21T08:11:44.611Z,14.9
2023-04-21T08:17:21.139Z,14.9
2023-04-21T08:23:01.414Z,15.3
2023-04-21T08:28:37.707Z,15.4
2023-04-21T08:34:44.795Z,15.5
2023-04-21T08:41:01.115Z,15.6
2023-04-21T08:46:56.235Z,16.1
2023-04-21T08:52:50.777Z,16.8
2023-04-21T08:59:12.720Z,16.8
2023-04-21T09:10:18.230Z,17.2
2023-04-21T09:16:12.325Z,17.8
2023-04-21T09:21:49.021Z,17.1
2023-04-21T09:27:43.029Z,16.9
2023-04-21T09:40:29.487Z,17.8
2023-04-21T09:46:46.858Z,17.4
2023-04-21T09:53:23.857Z,17.4
2023-04-21T09:59:14.772Z,17.6
2023-04-21T10:05:10.245Z,17.5
2023-04-21T10:11:02.247Z,18.8
2023-04-21T10:16:56.231Z,17.9
2023-04-21T10:22:48.505Z,17.6
2023-04-21T10:28:40.279Z,17.4
2023-04-21T10:34:44.525Z,18.8
2023-04-21T10:46:32.504Z,21.4
2023-04-21T10:52:24.604Z,19.6
2023-04-21T10:58:16.394Z,19
2023-04-21T11:04:11.683Z,19.3
2023-04-21T11:10:06.352Z,20
2023-04-21T11:15:57.834Z,19.9
2023-04-21T11:21:49.845Z,20.3
2023-04-21T11:27:40.761Z,20.4
2023-04-21T11:33:17.048Z,21.3
2023-04-21T11:39:09.258Z,21.1
2023-04-21T11:45:00.491Z,21.3
2023-04-21T11:50:53.375Z,21.9
2023-04-21T11:56:29.803Z,21.7
2023-04-21T12:02:21.911Z,22.3
2023-04-21T12:08:01.433Z,22.8
2023-04-21T12:13:52.484Z,22.4
2023-04-21T12:19:46.046Z,22.8
2023-04-21T12:25:38.471Z,21.9
2023-04-21T12:31:32.836Z,21
2023-04-21T12:37:26.802Z,20.5
2023-04-21T12:43:18.244Z,19.9
2023-04-21T12:49:12.290Z,19
2023-04-21T12:54:48.728Z,18.9
2023-04-21T13:00:52.544Z,19.3
2023-04-21T13:06:46.365Z,19.1
2023-04-21T13:12:23.433Z,18.2
2023-04-21T13:18:15.197Z,18.4
2023-04-21T13:24:08.533Z,18.8
2023-04-21T13:29:59.981Z,18
2023-04-21T13:35:55.057Z,18.6
2023-04-21T13:41:34.017Z,18.4
2023-04-21T13:47:28.152Z,18.3
2023-04-21T13:53:21.574Z,18.1
2023-04-21T14:04:38.298Z,18.3
2023-04-21T14:10:33.846Z,18.6
2023-04-21T14:16:56.663Z,19.1
2023-04-21T14:22:48.165Z,19.3
2023-04-21T14:28:39.998Z,18.8
2023-04-21T14:34:17.799Z,18.3
2023-04-21T14:39:56.420Z,18.2
2023-04-21T14:45:34.920Z,18.1
2023-04-21T14:51:24.012Z,18
2023-04-21T14:57:31.282Z,18.8
2023-04-21T15:03:10.936Z,18.6
2023-04-21T15:08:52.718Z,19.3
2023-04-21T15:14:28.966Z,19.4
2023-04-21T15:20:05.517Z,19.3
2023-04-21T15:26:07.208Z,19.2
2023-04-21T15:31:43.407Z,18.6
2023-04-21T15:37:19.782Z,19.9
2023-04-21T15:43:06.773Z,18.9
2023-04-21T15:48:46.286Z,17.9
2023-04-21T15:54:38.778Z,17.8
2023-04-21T16:00:32.481Z,17.6
2023-04-21T16:12:04.996Z,16.8
2023-04-21T16:18:33.288Z,16.3
2023-04-21T16:24:25.031Z,15.8
2023-04-21T16:30:18.565Z,15.6
2023-04-21T16:36:13.653Z,15.2
2023-04-21T16:42:05.238Z,15.1
2023-04-21T16:47:59.126Z,14.4
2023-04-21T16:53:50.916Z,14.1
2023-04-21T16:59:41.676Z,13.8
2023-04-21T17:05:35.531Z,13.7
2023-04-21T17:11:27.355Z,13.6
2023-04-21T17:17:18.947Z,13.5
2023-04-21T17:23:12.289Z,13.5
2023-04-21T17:29:21.278Z,13.3
2023-04-21T17:35:49.031Z,13
2023-04-21T17:41:47.720Z,12.9
2023-04-21T17:47:39.609Z,12.6
2023-04-21T17:53:15.606Z,12.4
2023-04-21T17:59:08.072Z,12.4
2023-04-21T18:04:46.885Z,12.3
2023-04-21T18:10:22.562Z,12.2
2023-04-21T18:15:59.990Z,12.2
2023-04-21T18:21:36.918Z,11.9
2023-04-21T18:27:27.693Z,12.1
2023-04-21T18:32:48.875Z,11.7
2023-04-21T18:38:24.022Z,11.9
2023-04-21T18:43:29.738Z,11.8
2023-04-21T18:49:07.561Z,11.7
2023-04-21T18:54:43.362Z,11.8
2023-04-21T19:00:19.421Z,11.7
2023-04-21T19:05:57.946Z,11.6
2023-04-21T19:12:05.185Z,11.2
2023-04-21T19:18:10.443Z,11.3
2023-04-21T19:24:01.905Z,11.2
2023-04-21T19:29:53.384Z,11.3
2023-04-21T19:35:46.419Z,11.1
2023-04-21T19:41:37.829Z,10.9
2023-04-21T19:47:29.915Z,11
2023-04-21T19:53:21.393Z,10.9
2023-04-21T19:59:45.777Z,10.6
2023-04-21T20:05:40.941Z,10.3
2023-04-21T20:11:31.217Z,10.6
2023-04-21T20:17:23.624Z,10.3
2023-04-21T20:23:15.598Z,9.9
2023-04-21T20:28:53.278Z,9.8
2023-04-21T20:34:45.206Z,9.7
2023-04-21T20:40:21.291Z,9.5
2023-04-21T20:46:10.792Z,9.4
2023-04-21T20:52:03.244Z,9.2
2023-04-21T20:57:54.125Z,8.6
2023-04-21T21:03:49.152Z,8.7
2023-04-21T21:09:41.979Z,8.8
2023-04-21T21:15:36.277Z,8.6
2023-04-21T21:21:12.354Z,8.9
2023-04-21T21:27:03.462Z,8.4
2023-04-21T21:32:55.221Z,8.5
2023-04-21T21:38:46.906Z,8.3
2023-04-21T21:44:38.945Z,8.2
2023-04-21T21:50:35.298Z,8.3
2023-04-21T21:56:11.564Z,8.4
2023-04-21T22:02:06.853Z,8.3
2023-04-21T22:08:02.080Z,8.5
2023-04-21T22:13:54.027Z,8.5
2023-04-21T22:19:57.846Z,8.3
2023-04-21T22:25:48.738Z,8
2023-04-21T22:31:25.043Z,7.3
2023-04-21T22:37:16.925Z,7.1
2023-04-21T22:43:07.407Z,6.9
2023-04-21T22:48:59.527Z,7.1
2023-04-21T22:54:51.642Z,7.1
2023-04-21T23:00:44.224Z,7.3
2023-04-21T23:06:37.305Z,7.4
2023-04-21T23:12:14.009Z,7.3
2023-04-21T23:18:06.529Z,7.6
2023-04-21T23:23:57.980Z,7.7
2023-04-21T23:29:49.889Z,7.5
2023-04-21T23:35:41.885Z,7.5
2023-04-21T23:41:33.133Z,7.6
2023-04-21T23:47:25.503Z,7
2023-04-21T23:53:02.931Z,6.9
2023-04-21T23:58:55.354Z,7.3
